Flight Track Log - Related Links

Times and Time Zones

All times are in EST time to prevent confusion due to time zone crossing. See the SWA3030 flight status page for this flight to view local times or setup timezone preferences in your user account.

Time Position Orientation Groundspeed Altitude Reporting Facility
EST Latitude Longitude Course Direction KTS MPH feet Rate Location/Type
Sat 09:16:40 PM 41.7997 -87.7836 270° West 145 167 2,200  Level Chicago Center
Sat 09:17:41 PM 41.7786 -87.8550 248° West 212 244 4,000 1,623 Climbing Chicago Center
Sat 09:18:42 PM 41.7803 -87.9469 271° West 233 268 5,500 984 Climbing Chicago Center
Sat 09:19:43 PM 41.7825 -88.0358 272° West 239 275 6,000 246 Climbing Chicago Center
Sat 09:20:44 PM 41.7842 -88.1225 272° West 234 269 6,000 645 Level Chicago Center
Sat 09:21:44 PM 41.7864 -88.2100 272° West 236 272 7,300 2,281 Climbing Chicago Center
Sat 09:22:00 PM 41.7834 -88.2419 270° West  Level FlightAware Approximate
Sat 09:22:45 PM 41.7878 -88.2936 271° West 227 261 10,600  Level Chicago Center
Sat 09:23:46 PM 41.7903 -88.4050 272° West 293 337 11,600 1,770 Climbing Chicago Center
Sat 09:24:47 PM 41.7919 -88.5289 271° West 332 382 14,200 3,000 Climbing Chicago Center
Sat 09:25:48 PM 41.7939 -88.6533 271° West 335 386 17,700 2,361 Climbing Chicago Center
Sat 09:26:49 PM 41.7956 -88.7614 271° West 330 380 19,000 1,721 Climbing Chicago Center
Sat 09:27:50 PM 41.7822 -88.9156 263° West 349 402 21,200 1,967 Climbing Chicago Center
Sat 09:28:51 PM 41.7650 -89.0461 260° West 359 413 23,000 1,623 Climbing Chicago Center
Sat 09:29:52 PM 41.7472 -89.1822 260° West 370 426 24,500 1,475 Climbing Chicago Center
Sat 09:30:53 PM 41.7278 -89.3219 259° West 380 437 26,000 1,770 Climbing Chicago Center
Sat 09:31:54 PM 41.7097 -89.4583 260° West 375 432 28,100 2,164 Climbing Chicago Center
Sat 09:32:55 PM 41.6950 -89.5772 261° West 363 418 30,400 2,115 Climbing Chicago Center
Sat 09:33:56 PM 41.6781 -89.6992 260° West 339 390 32,400 1,770 Climbing Chicago Center
Sat 09:34:57 PM 41.6581 -89.8436 260° West 329 379 34,000 1,377 Climbing Chicago Center
Sat 09:35:58 PM 41.6417 -89.9644 260° West 332 382 35,200 984 Climbing Chicago Center
Sat 09:36:59 PM 41.6258 -90.0825 260° West 327 376 36,000 393 Climbing Chicago Center
Sat 09:38:00 PM 41.6100 -90.2006 260° West 324 373 36,000  Level Chicago Center
Sat 09:39:01 PM 41.5925 -90.3197 259° West 326 375 36,000  Level Chicago Center
Sat 09:40:02 PM 41.5756 -90.4400 259° West 330 380 36,000  Level Chicago Center
Sat 09:41:03 PM 41.5592 -90.5575 259° West 326 375 36,000  Level Chicago Center
Sat 09:42:04 PM 41.5422 -90.6711 259° West 325 374 36,000  Level Chicago Center
Sat 09:43:04 PM 41.5250 -90.7881 259° West 324 373 36,000  Level Chicago Center
Sat 09:44:05 PM 41.5069 -90.9111 259° West 325 374 36,000  Level Chicago Center
Sat 09:45:06 PM 41.4900 -91.0297 259° West 327 376 36,000  Level Chicago Center
Sat 09:46:07 PM 41.4719 -91.1483 259° West 328 377 36,000  Level Chicago Center
Sat 09:47:08 PM 41.4519 -91.2897 259° West 323 372 36,000  Level Chicago Center
Sat 09:48:09 PM 41.4342 -91.4031 258° West 325 374 36,000  Level Chicago Center
Sat 09:49:10 PM 41.4178 -91.5192 259° West 322 371 36,000  Level Chicago Center
Sat 09:50:11 PM 41.3997 -91.6344 258° West 319 367 36,000  Level Chicago Center
Sat 09:51:12 PM 41.3814 -91.7481 258° West 317 365 36,000  Level Chicago Center
Sat 09:52:13 PM 41.3647 -91.8606 259° West 313 360 36,000  Level Chicago Center
Sat 09:53:14 PM 41.3467 -91.9731 258° West 312 359 36,000  Level Chicago Center
Sat 09:54:15 PM 41.3294 -92.0833 258° West 308 354 36,000  Level Chicago Center
Sat 09:55:16 PM 41.3119 -92.1956 258° West 310 357 36,000  Level Chicago Center
Sat 09:56:17 PM 41.2942 -92.3056 258° West 307 353 36,000  Level Chicago Center
Sat 09:57:18 PM 41.2731 -92.4397 258° West 313 360 36,000  Level Chicago Center
Sat 09:58:19 PM 41.2553 -92.5514 258° West 312 359 36,000  Level Chicago Center
Sat 09:59:20 PM 41.2364 -92.6628 257° West 312 359 36,000  Level Chicago Center
Sat 10:00:20 PM 41.2183 -92.7767 258° West 316 364 36,000  Level Chicago Center
Sat 10:02:01 PM 41.1886 -92.9572 258° West 313 360 36,000  Level Minneapolis Center
Sat 10:03:02 PM 41.1700 -93.0717 258° West 315 362 36,000  Level Minneapolis Center
Sat 10:04:03 PM 41.1464 -93.2117 257° West 321 369 36,000  Level Minneapolis Center
Sat 10:05:04 PM 41.1261 -93.3275 257° West 321 369 36,000  Level Minneapolis Center
Sat 10:06:05 PM 41.1072 -93.4444 258° West 323 372 36,000  Level Minneapolis Center
Sat 10:07:06 PM 41.0878 -93.5597 257° West 323 372 36,000  Level Minneapolis Center
Sat 10:08:07 PM 41.0678 -93.6758 257° West 323 372 36,000  Level Minneapolis Center
Sat 10:09:07 PM 41.0464 -93.7981 257° West 323 372 36,000  Level Minneapolis Center
Sat 10:10:08 PM 41.0264 -93.9083 257° West 324 373 36,000  Level Minneapolis Center
Sat 10:11:09 PM 41.0083 -94.0233 258° West 324 373 36,000  Level Minneapolis Center
Sat 10:12:10 PM 40.9864 -94.1411 256° West 324 373 36,000  Level Minneapolis Center
Sat 10:13:11 PM 40.9650 -94.2581 256° West 326 375 36,000  Level Minneapolis Center
Sat 10:14:12 PM 40.9444 -94.3750 257° West 326 375 36,000  Level Minneapolis Center
Sat 10:15:13 PM 40.9197 -94.5128 257° West 326 375 36,000  Level Minneapolis Center
Sat 10:16:14 PM 40.9019 -94.6156 257° West 325 374 36,000  Level Minneapolis Center
Sat 10:17:14 PM 40.8811 -94.7317 257° West 324 373 36,000  Level Minneapolis Center
Sat 10:18:15 PM 40.8594 -94.8467 256° West 324 373 36,000  Level Minneapolis Center
Sat 10:19:16 PM 40.8375 -94.9614 256° West 324 373 36,000  Level Minneapolis Center
Sat 10:20:17 PM 40.8167 -95.0750 256° West 323 372 36,000  Level Minneapolis Center
Sat 10:21:18 PM 40.7964 -95.1872 257° West 320 368 36,000  Level Minneapolis Center
Sat 10:22:19 PM 40.7764 -95.2983 257° West 316 364 36,000  Level Minneapolis Center
Sat 10:23:19 PM 40.7503 -95.4300 255° West 312 359 36,000  Level Minneapolis Center
Sat 10:24:20 PM 40.7292 -95.5394 256° West 311 358 36,000  Level Minneapolis Center
Sat 10:25:21 PM 40.7092 -95.6500 257° West 310 357 36,000  Level Minneapolis Center
Sat 10:26:22 PM 40.6878 -95.7600 256° West 310 357 36,000  Level Minneapolis Center
Sat 10:27:23 PM 40.6667 -95.8700 256° West 310 357 36,000  Level Minneapolis Center
Sat 10:28:23 PM 40.6447 -95.9800 255° West 310 357 36,000  Level Minneapolis Center
Sat 10:29:24 PM 40.6231 -96.0917 256° West 310 357 36,000  Level Minneapolis Center
Sat 10:30:25 PM 40.6014 -96.2036 256° West 311 358 36,000  Level Minneapolis Center
Sat 10:31:26 PM 40.5792 -96.3178 256° West 315 362 36,000  Level Minneapolis Center
Sat 10:32:26 PM 40.5572 -96.4306 256° West 316 364 36,000  Level Minneapolis Center
Sat 10:33:27 PM 40.5350 -96.5392 255° West 315 362 36,000  Level Minneapolis Center
Sat 10:34:28 PM 40.5125 -96.6483 255° West 312 359 36,000  Level Minneapolis Center
Sat 10:35:28 PM 40.4900 -96.7586 255° West 312 359 36,000  Level Minneapolis Center
Sat 10:36:29 PM 40.4683 -96.8669 255° West 311 358 36,000  Level Minneapolis Center
Sat 10:37:30 PM 40.4472 -96.9767 256° West 310 357 36,000  Level Minneapolis Center
Sat 10:38:31 PM 40.4244 -97.0844 255° West 310 357 36,000  Level Minneapolis Center
Sat 10:39:31 PM 40.4025 -97.1925 255° West 310 357 36,000  Level Minneapolis Center
Sat 10:40:32 PM 40.3800 -97.3022 255° West 309 356 36,000  Level Minneapolis Center
Sat 10:41:33 PM 40.3561 -97.4167 255° West 310 357 36,000 50 Level Minneapolis Center
Sat 10:42:33 PM 40.3333 -97.5278 255° West 311 358 36,100 645 Climbing Minneapolis Center
Sat 10:43:34 PM 40.3094 -97.6372 254° West 311 358 37,300 738 Climbing Minneapolis Center
Sat 10:44:35 PM 40.2861 -97.7492 255° West 314 361 37,600 347 Climbing Minneapolis Center
Sat 10:45:35 PM 40.2614 -97.8669 255° West 328 377 38,000 198 Climbing Minneapolis Center
Sat 10:46:36 PM 40.2356 -97.9850 254° West 332 382 38,000  Level Minneapolis Center
Sat 10:47:37 PM 40.2103 -98.1050 255° West 335 386 38,000  Level Minneapolis Center
Sat 10:48:37 PM 40.1842 -98.2247 254° West 337 388 38,000  Level Minneapolis Center
Sat 10:49:38 PM 40.1586 -98.3428 254° West 337 388 38,000  Level Minneapolis Center
Sat 10:50:39 PM 40.1331 -98.4628 254° West 338 389 38,000  Level Minneapolis Center
Sat 10:51:39 PM 40.1072 -98.5817 254° West 338 389 38,000  Level Minneapolis Center
Sat 10:52:40 PM 40.0803 -98.6997 253° West 338 389 38,000  Level Minneapolis Center
Sat 10:53:41 PM 40.0542 -98.8183 254° West 338 389 38,000  Level Minneapolis Center
Sat 10:54:41 PM 40.0289 -98.9364 254° West 338 389 38,000  Level Minneapolis Center
Sat 10:55:42 PM 40.0028 -99.0536 254° West 338 389 38,000  Level Minneapolis Center
Sat 10:56:43 PM 39.9756 -99.1700 253° West 337 388 38,000  Level Minneapolis Center
Sat 10:57:43 PM 39.9483 -99.2872 253° West 337 388 38,000  Level Minneapolis Center
Sat 10:58:44 PM 39.9169 -99.4292 254° West 337 388 38,000  Level Minneapolis Center
Sat 10:59:44 PM 39.8892 -99.5489 253° West 341 392 38,000  Level Minneapolis Center
Sat 11:00:45 PM 39.8606 -99.6675 253° West 341 392 38,000  Level Minneapolis Center
Sat 11:01:46 PM 39.8342 -99.7878 254° West 342 394 38,000  Level Minneapolis Center
Sat 11:02:46 PM 39.8061 -99.9072 253° West 342 394 38,000  Level Minneapolis Center
Sat 11:03:47 PM 39.7781 -100.0261 253° West 342 394 38,000  Level Minneapolis Center
Sat 11:04:47 PM 39.7508 -100.1450 253° West 342 394 38,000  Level Minneapolis Center
Sat 11:05:48 PM 39.7233 -100.2631 253° West 342 394 38,000  Level Minneapolis Center
Sat 11:07:07 PM 39.6864 -100.4108 252° West 342 394 38,000  Level Denver Center
Sat 11:08:08 PM 39.6597 -100.5233 253° West 342 394 38,000  Level Denver Center
Sat 11:09:09 PM 39.6281 -100.6550 253° West 342 394 38,000  Level Denver Center
Sat 11:10:10 PM 39.6014 -100.7675 253° West 342 394 38,000  Level Denver Center
Sat 11:11:11 PM 39.5733 -100.8797 252° West 342 394 38,000  Level Denver Center
Sat 11:12:11 PM 39.5411 -101.0128 253° West 344 396 38,000  Level Denver Center
Sat 11:13:12 PM 39.5133 -101.1258 252° West 346 398 38,000  Level Denver Center
Sat 11:14:13 PM 39.4858 -101.2408 253° West 346 398 38,000  Level Denver Center
Sat 11:15:14 PM 39.4569 -101.3561 252° West 351 404 38,000  Level Denver Center
Sat 11:16:15 PM 39.4236 -101.4914 252° West 352 405 38,000  Level Denver Center
Sat 11:17:16 PM 39.3936 -101.6078 252° West 353 406 38,000  Level Denver Center
Sat 11:18:16 PM 39.3592 -101.7442 252° West 355 409 38,000  Level Denver Center
Sat 11:19:17 PM 39.3306 -101.8608 252° West 355 409 38,000  Level Denver Center
Sat 11:20:18 PM 39.2986 -101.9811 251° West 354 407 38,000  Level Denver Center
Sat 11:21:19 PM 39.2694 -102.0950 252° West 352 405 38,000  Level Denver Center
Sat 11:22:19 PM 39.2353 -102.2306 252° West 353 406 38,000  Level Denver Center
Sat 11:23:20 PM 39.2053 -102.3439 251° West 353 406 38,000  Level Denver Center
Sat 11:24:33 PM 39.1658 -102.4978 252° West 353 406 38,000  Level Denver Center
Sat 11:25:34 PM 39.1358 -102.6133 252° West 355 409 38,000  Level Denver Center
Sat 11:26:35 PM 39.1019 -102.7408 251° West 355 409 38,000  Level Denver Center
Sat 11:27:36 PM 39.0711 -102.8608 252° West 355 409 38,000  Level Denver Center
Sat 11:28:36 PM 39.0378 -102.9817 250° West 356 410 38,000  Level Denver Center
Sat 11:29:37 PM 39.0069 -103.1022 252° West 356 410 38,000  Level Denver Center
Sat 11:30:38 PM 38.9742 -103.2214 251° West 355 409 38,000  Level Denver Center
Sat 11:31:39 PM 38.9425 -103.3414 251° West 355 409 38,000  Level Denver Center
Sat 11:32:39 PM 38.9108 -103.4606 251° West 355 409 38,000  Level Denver Center
Sat 11:33:40 PM 38.8781 -103.5797 251° West 355 409 38,000  Level Denver Center
Sat 11:34:41 PM 38.8433 -103.7100 251° West 354 407 38,000  Level Denver Center
Sat 11:35:41 PM 38.8117 -103.8236 250° West 354 407 38,000  Level Denver Center
Sat 11:36:42 PM 38.7794 -103.9411 251° West 362 417 38,000  Level Denver Center
Sat 11:37:43 PM 38.7417 -104.0758 250° West 362 417 38,000  Level Denver Center
Sat 11:38:44 PM 38.7128 -104.1836 251° West 363 418 38,000  Level Denver Center
Sat 11:39:44 PM 38.6797 -104.3047 251° West 363 418 38,000  Level Denver Center
Sat 11:40:45 PM 38.6450 -104.4272 250° West 363 418 38,000  Level Denver Center
Sat 11:41:46 PM 38.6108 -104.5478 250° West 363 418 38,000  Level Denver Center
Sat 11:42:47 PM 38.5700 -104.6922 250° West 360 414 38,000  Level Denver Center
Sat 11:43:47 PM 38.5347 -104.8172 250° West 367 422 38,000  Level Denver Center
Sat 11:44:48 PM 38.4981 -104.9431 250° West 373 429 38,000  Level Denver Center
Sat 11:45:49 PM 38.4631 -105.0683 250° West 374 430 38,000  Level Denver Center
Sat 11:46:49 PM 38.4272 -105.1942 250° West 374 430 38,000  Level Denver Center
Sat 11:47:50 PM 38.3903 -105.3211 250° West 381 438 38,000  Level Denver Center
Sat 11:48:51 PM 38.3539 -105.4461 250° West 380 437 38,000  Level Denver Center
Sat 11:49:51 PM 38.3161 -105.5733 249° West 378 435 38,000  Level Denver Center
Sat 11:50:52 PM 38.2817 -105.6906 250° West 375 432 38,000  Level Denver Center
Sat 11:51:53 PM 38.2481 -105.8069 250° West 370 426 38,000  Level Denver Center
Sat 11:52:54 PM 38.2061 -105.9414 248° West 370 426 38,000  Level Denver Center
Sat 11:53:54 PM 38.1728 -106.0564 250° West 366 421 38,000  Level Denver Center
Sat 11:54:55 PM 38.1411 -106.1658 250° West 366 421 38,000  Level Denver Center
Sat 11:55:56 PM 38.1031 -106.2886 249° West 369 425 38,000  Level Denver Center
Sat 11:56:57 PM 38.0647 -106.4236 250° West 366 421 38,000  Level Denver Center
Sat 11:57:57 PM 38.0222 -106.5572 248° West 381 438 38,000  Level Denver Center
Sat 11:58:58 PM 37.9861 -106.6744 249° West 378 435 38,000  Level Denver Center
Sat 11:59:59 PM 37.9500 -106.7936 249° West 376 433 38,000  Level Denver Center
Sun 12:01:00 AM 37.9078 -106.9325 249° West 378 435 38,000  Level Denver Center
Sun 12:02:00 AM 37.8711 -107.0500 248° West 377 434 38,000  Level Denver Center
Sun 12:03:01 AM 37.8286 -107.1825 248° West 377 434 38,000  Level Denver Center
Sun 12:04:02 AM 37.7933 -107.3025 250° West 380 437 38,000  Level Denver Center
Sun 12:05:03 AM 37.7561 -107.4219 249° West 380 437 38,000  Level Denver Center
Sun 12:06:03 AM 37.7122 -107.5617 248° West 381 438 38,000  Level Denver Center
Sun 12:07:04 AM 37.6744 -107.6814 248° West 381 438 38,000  Level Denver Center
Sun 12:08:05 AM 37.6342 -107.8058 248° West 381 438 38,000  Level Denver Center
Sun 12:09:06 AM 37.5928 -107.9378 248° West 381 438 38,000  Level Denver Center
Sun 12:10:06 AM 37.5553 -108.0553 248° West 381 438 38,000  Level Denver Center
Sun 12:11:07 AM 37.5169 -108.1736 248° West 379 436 38,000  Level Denver Center
Sun 12:12:08 AM 37.4731 -108.3117 248° West 379 436 38,000  Level Denver Center
Sun 12:13:08 AM 37.4353 -108.4275 248° West 379 436 38,000  Level Denver Center
Sun 12:14:09 AM 37.3969 -108.5458 248° West 379 436 38,000  Level Denver Center
Sun 12:15:10 AM 37.3583 -108.6633 248° West 379 436 38,000  Level Denver Center
Sun 12:16:11 AM 37.3128 -108.8017 248° West 380 437 38,000  Level Denver Center
Sun 12:17:11 AM 37.2733 -108.9200 247° West 381 438 38,000  Level Denver Center
Sun 12:18:12 AM 37.2281 -109.0592 248° West 383 441 38,000  Level Denver Center
Sun 12:19:13 AM 37.1883 -109.1775 247° West 383 441 38,000  Level Denver Center
Sun 12:20:13 AM 37.1481 -109.2975 247° West 388 447 38,000  Level Denver Center
Sun 12:21:14 AM 37.1017 -109.4356 247° West 388 447 38,000  Level Denver Center
Sun 12:22:15 AM 37.0617 -109.5539 247° West 388 447 38,000  Level Denver Center
Sun 12:23:15 AM 37.0228 -109.6711 247° West 387 445 38,000  Level Denver Center
Sun 12:24:16 AM 36.9758 -109.8100 247° West 386 444 38,000  Level Denver Center
Sun 12:25:17 AM 36.9353 -109.9286 247° West 386 444 38,000  Level Denver Center
Sun 12:26:17 AM 36.8953 -110.0464 247° West 386 444 38,000  Level Denver Center
Sun 12:27:18 AM 36.8508 -110.1764 247° West 392 451 38,000  Level Denver Center
Sun 12:28:18 AM 36.8067 -110.3036 247° West 396 456 38,000  Level Denver Center
Sun 12:29:19 AM 36.7625 -110.4289 246° West 396 456 38,000  Level Denver Center
Sun 12:30:20 AM 36.7186 -110.5561 247° West 397 457 38,000  Level Denver Center
Sun 12:31:20 AM 36.6753 -110.6806 247° West 396 456 38,000  Level Denver Center
Sun 12:32:21 AM 36.6336 -110.8036 247° West 390 449 38,000  Level Denver Center
Sun 12:33:21 AM 36.5900 -110.9281 246° West 389 448 38,000  Level Denver Center
Sun 12:34:22 AM 36.5461 -111.0539 247° West 393 452 38,000  Level Denver Center
Sun 12:35:22 AM 36.4908 -111.2053 246° West 395 455 38,000  Level Denver Center
Sun 12:36:23 AM 36.4456 -111.3308 246° West 396 456 38,000  Level Denver Center
Sun 12:37:24 AM 36.4008 -111.4564 246° West 400 460 38,000  Level Denver Center
Sun 12:38:24 AM 36.3553 -111.5825 246° West 400 460 38,000  Level Denver Center
Sun 12:39:25 AM 36.3092 -111.7086 246° West 400 460 38,000  Level Denver Center
Sun 12:40:25 AM 36.2642 -111.8350 246° West 400 460 38,000  Level Denver Center
Sun 12:40:55 AM 36.2431 -111.8875 244° Southwest 401 461 38,000  Level Los Angeles Center
Sun 12:41:56 AM 36.1969 -112.0161 246° West 406 467 38,000  Level Los Angeles Center
Sun 12:42:57 AM 36.1489 -112.1481 246° West 410 472 38,000  Level Los Angeles Center
Sun 12:43:57 AM 36.1031 -112.2739 246° West 411 473 38,000  Level Los Angeles Center
Sun 12:44:59 AM 36.0556 -112.3989 245° Southwest 406 467 38,000  Level Los Angeles Center
Sun 12:45:59 AM 36.0089 -112.5278 246° West 408 470 38,000  Level Los Angeles Center
Sun 12:47:00 AM 35.9611 -112.6556 245° Southwest 409 471 38,000  Level Los Angeles Center
Sun 12:48:01 AM 35.9114 -112.7831 244° Southwest 414 476 38,000  Level Los Angeles Center
Sun 12:49:02 AM 35.8550 -112.9375 246° West 416 479 38,000  Level Los Angeles Center
Sun 12:50:03 AM 35.8081 -113.0636 245° Southwest 412 474 38,000  Level Los Angeles Center
Sun 12:51:04 AM 35.7608 -113.1881 245° Southwest 407 468 38,000  Level Los Angeles Center
Sun 12:52:04 AM 35.7133 -113.3125 245° Southwest 407 468 38,000  Level Los Angeles Center
Sun 12:53:05 AM 35.6661 -113.4381 245° Southwest 408 470 38,000  Level Los Angeles Center
Sun 12:54:06 AM 35.6189 -113.5619 245° Southwest 406 467 38,000  Level Los Angeles Center
Sun 12:55:07 AM 35.5686 -113.6858 244° Southwest 406 467 38,000  Level Los Angeles Center
Sun 12:56:08 AM 35.5178 -113.8086 243° Southwest 407 468 38,000  Level Los Angeles Center
Sun 12:57:08 AM 35.4672 -113.9325 243° Southwest 408 470 38,000  Level Los Angeles Center
Sun 12:58:09 AM 35.4147 -114.0628 244° Southwest 410 472 38,000  Level Los Angeles Center
Sun 12:59:10 AM 35.3625 -114.1886 243° Southwest 413 475 38,000  Level Los Angeles Center
Sun 01:00:11 AM 35.3017 -114.3386 244° Southwest 410 472 38,000  Level Los Angeles Center
Sun 01:01:12 AM 35.2489 -114.4644 243° Southwest 414 476 38,000  Level Los Angeles Center
Sun 01:02:12 AM 35.1978 -114.5897 243° Southwest 411 473 38,000  Level Los Angeles Center
Sun 01:03:13 AM 35.1456 -114.7156 243° Southwest 413 475 38,000  Level Los Angeles Center
Sun 01:04:14 AM 35.0969 -114.8417 245° Southwest 411 473 38,000  Level Los Angeles Center
Sun 01:05:15 AM 35.0447 -114.9697 244° Southwest 417 480 38,000  Level Los Angeles Center
Sun 01:06:15 AM 34.9928 -115.1003 244° Southwest 423 487 38,000  Level Los Angeles Center
Sun 01:07:16 AM 34.9406 -115.2272 243° Southwest 421 484 38,000  Level Los Angeles Center
Sun 01:08:17 AM 34.8881 -115.3561 244° Southwest 423 487 38,000  Level Los Angeles Center
Sun 01:09:18 AM 34.8350 -115.4850 243° Southwest 425 489 38,000  Level Los Angeles Center
Sun 01:10:18 AM 34.7831 -115.6142 244° Southwest 428 493 38,000  Level Los Angeles Center
Sun 01:11:19 AM 34.7297 -115.7442 244° Southwest 430 495 38,000  Level Los Angeles Center
Sun 01:12:20 AM 34.6769 -115.8719 243° Southwest 427 491 38,000  Level Los Angeles Center
Sun 01:13:20 AM 34.6250 -115.9983 243° Southwest 420 483 38,000 -248 Level Los Angeles Center
Sun 01:14:21 AM 34.5725 -116.1236 243° Southwest 418 481 37,500 -1,475 Descending Los Angeles Center
Sun 01:15:22 AM 34.5206 -116.2469 243° Southwest 412 474 35,000 -2,281 Descending Los Angeles Center
Sun 01:16:22 AM 34.4678 -116.3733 243° Southwest 419 482 32,900 -2,083 Descending Los Angeles Center
Sun 01:17:23 AM 34.4153 -116.4983 243° Southwest 411 473 30,800 -2,016 Descending Los Angeles Center
Sun 01:18:24 AM 34.3642 -116.6150 242° Southwest 404 465 28,800 -1,918 Descending Los Angeles Center
Sun 01:19:25 AM 34.3161 -116.7292 243° Southwest 388 447 26,900 -1,884 Descending Los Angeles Center
Sun 01:20:25 AM 34.2689 -116.8408 243° Southwest 377 434 25,000 -1,835 Descending Los Angeles Center
Sun 01:21:26 AM 34.2222 -116.9506 243° Southwest 370 426 23,200 -1,820 Descending Los Angeles Center
Sun 01:22:27 AM 34.1789 -117.0542 243° Southwest 355 409 21,300 -2,083 Descending Los Angeles Center
Sun 01:23:27 AM 34.1242 -117.1800 242° Southwest 356 410 19,000 -1,537 Descending Los Angeles Center
Sun 01:24:28 AM 34.0839 -117.2739 243° Southwest 360 414 18,200 -1,488 Descending Los Angeles Center
Sun 01:25:28 AM 34.0397 -117.3783 243° Southwest 354 407 16,000 -2,268 Descending Los Angeles Center
Sun 01:26:35 AM 34.0167 -117.5167 259° West 330 380 13,400 -1,890 Descending Southern California TRACON
Sun 01:27:35 AM 34.0167 -117.6333 270° West 414 476 12,000 -1,053 Descending Southern California TRACON
Sun 01:28:29 AM 34.0000 -117.7167 256° West 280 322 11,400 -1,053 Descending Southern California TRACON
Sun 01:29:29 AM 34.0000 -117.8167 270° West 274 315 10,000 -700 Descending Southern California TRACON
Sun 01:30:29 AM 33.9833 -117.9000 256° West 274 315 10,000  Level Southern California TRACON
Sun 01:31:29 AM 33.9833 -117.9833 270° West 276 318 10,000  Level Southern California TRACON
Sun 01:32:29 AM 33.9667 -118.0833 259° West 275 316 10,000 -290 Level Southern California TRACON
Sun 01:33:33 AM 33.9600 -118.1767 265° West 274 315 9,400 -768 Descending Los Angeles Center
Sun 01:34:34 AM 33.9508 -118.2664 263° West 274 315 8,400 -689 Descending Los Angeles Center
Sun 01:35:35 AM 33.9742 -118.3503 289° West 267 307 8,000 -198 Descending Los Angeles Center
Sun 01:36:35 AM 34.0022 -118.4328 292° West 268 308 8,000 -744 Level Los Angeles Center
Sun 01:37:36 AM 34.0153 -118.5297 279° West 268 308 6,500 -1,240 Descending Los Angeles Center
Sun 01:38:36 AM 34.0203 -118.6122 274° West 252 290 5,500 -893 Descending Los Angeles Center
Sun 01:39:37 AM 34.0031 -118.6722 251° West 212 244 4,700 -893 Descending Los Angeles Center
Sun 01:40:37 AM 33.9536 -118.6689 177° South 188 216 3,700 -1,041 Descending Los Angeles Center
Sun 01:41:38 AM 33.9314 -118.6133 116° Southeast 186 214 2,600 -843 Descending Los Angeles Center
Sun 01:42:38 AM 33.9372 -118.5492 84° East 181 208 2,000 -694 Descending Los Angeles Center
Sun 01:43:39 AM 33.9425 -118.4944 83° East 165 190 1,200 -738 Descending Los Angeles Center
Sun 01:44:40 AM 33.9467 -118.4542 83° East 126 145 500 -545 Descending Los Angeles Center
Sun 01:45:40 AM 33.9511 -118.4192 81° East 124 143 100 -400 Descending Los Angeles Center

Login

Don't have an account? Register now (free) for customized features, flight alerts, and more!